createdAt,value
2022-08-03T00:02:19.905Z,3.60
2022-08-03T00:04:47.666Z,2.20
2022-08-03T00:07:15.739Z,2.70
2022-08-03T00:09:43.296Z,3.20
2022-08-03T00:12:10.652Z,2.90
2022-08-03T00:14:37.800Z,3.10
2022-08-03T00:17:05.019Z,2.60
2022-08-03T00:19:32.267Z,2.90
2022-08-03T00:21:59.456Z,4.10
2022-08-03T00:24:26.715Z,3.10
2022-08-03T00:26:54.266Z,3.80
2022-08-03T00:29:21.516Z,2.80
2022-08-03T00:31:52.510Z,2.80
2022-08-03T00:34:57.410Z,3.00
2022-08-03T00:37:13.791Z,3.30
2022-08-03T00:39:41.248Z,3.00
2022-08-03T00:42:08.398Z,3.00
2022-08-03T00:44:45.788Z,2.40
2022-08-03T00:47:13.553Z,2.90
2022-08-03T00:49:42.023Z,3.10
2022-08-03T00:52:10.922Z,3.10
2022-08-03T00:54:38.935Z,2.90
2022-08-03T00:57:06.755Z,2.70
2022-08-03T00:59:34.930Z,3.00
2022-08-03T01:02:02.592Z,3.00
2022-08-03T01:04:29.745Z,3.00
2022-08-03T01:07:22.844Z,3.40
2022-08-03T01:10:02.394Z,2.60
2022-08-03T01:12:36.488Z,2.30
2022-08-03T01:15:30.050Z,2.90
2022-08-03T01:18:10.700Z,3.30
2022-08-03T01:20:43.802Z,3.00
2022-08-03T01:23:48.916Z,2.40
2022-08-03T01:26:49.245Z,2.80
2022-08-03T01:29:50.628Z,2.90
2022-08-03T01:32:59.770Z,3.30
2022-08-03T01:35:14.946Z,3.20
2022-08-03T01:37:57.100Z,2.50
2022-08-03T01:40:27.582Z,3.00
2022-08-03T01:42:57.951Z,2.90
2022-08-03T01:45:26.373Z,2.90
2022-08-03T01:47:55.580Z,3.10
2022-08-03T01:50:29.887Z,2.30
2022-08-03T01:52:58.880Z,2.90
2022-08-03T01:55:29.984Z,2.90
2022-08-03T01:58:06.087Z,3.30
2022-08-03T02:00:37.508Z,3.70
2022-08-03T02:03:07.148Z,2.30
2022-08-03T02:05:35.294Z,3.10
2022-08-03T02:08:05.251Z,2.70
2022-08-03T02:10:35.769Z,3.20
2022-08-03T02:13:06.631Z,3.30
2022-08-03T02:15:36.262Z,2.30
2022-08-03T02:18:06.405Z,3.00
2022-08-03T02:20:36.706Z,3.20
2022-08-03T02:23:04.265Z,3.60
2022-08-03T02:25:33.860Z,3.20
2022-08-03T02:28:15.768Z,2.30
2022-08-03T02:30:45.744Z,2.90
2022-08-03T02:33:25.375Z,2.90
2022-08-03T02:35:54.163Z,3.10
2022-08-03T02:38:26.523Z,3.80
2022-08-03T02:40:58.116Z,2.10
2022-08-03T02:45:54.793Z,3.00
2022-08-03T02:48:26.972Z,3.20
2022-08-03T02:50:57.328Z,3.30
2022-08-03T02:53:29.657Z,3.70
2022-08-03T02:55:58.345Z,2.10
2022-08-03T02:58:26.623Z,2.90
2022-08-03T03:00:54.459Z,3.10
2022-08-03T03:03:22.967Z,3.00
2022-08-03T03:05:57.488Z,3.50
2022-08-03T03:08:28.630Z,3.00
2022-08-03T03:11:01.931Z,2.30
2022-08-03T03:13:31.441Z,2.80
2022-08-03T03:16:01.960Z,2.70
2022-08-03T03:18:31.305Z,2.90
2022-08-03T03:21:00.910Z,3.00
2022-08-03T03:23:29.457Z,3.10
2022-08-03T03:25:58.714Z,2.10
2022-08-03T03:28:26.930Z,2.50
2022-08-03T03:30:54.277Z,2.40
2022-08-03T03:33:22.896Z,3.00
2022-08-03T03:35:51.959Z,3.00
2022-08-03T03:38:20.213Z,3.00
2022-08-03T03:40:48.002Z,2.30
2022-08-03T03:43:15.453Z,2.60
2022-08-03T03:45:43.422Z,2.90
2022-08-03T03:48:10.982Z,2.60
2022-08-03T03:50:41.204Z,3.20
2022-08-03T03:53:12.689Z,2.80
2022-08-03T03:56:02.432Z,2.30
2022-08-03T03:58:28.666Z,2.70
2022-08-03T04:00:55.999Z,2.70
2022-08-03T04:03:23.575Z,2.90
2022-08-03T04:06:09.463Z,3.00
2022-08-03T04:08:55.251Z,2.40
2022-08-03T04:11:43.802Z,2.50
2022-08-03T04:14:21.295Z,2.90
2022-08-03T04:17:02.884Z,3.10
2022-08-03T04:19:40.892Z,3.00
2022-08-03T04:22:12.137Z,2.40
2022-08-03T04:24:43.493Z,2.90
2022-08-03T04:27:14.552Z,2.90
2022-08-03T04:29:48.798Z,3.20
2022-08-03T04:32:17.909Z,2.90
2022-08-03T04:34:45.537Z,3.20
2022-08-03T04:37:18.191Z,2.20
2022-08-03T04:39:49.520Z,2.70
2022-08-03T04:42:20.133Z,2.60
2022-08-03T04:44:49.656Z,2.80
2022-08-03T04:47:17.218Z,3.20
2022-08-03T04:49:44.783Z,3.00
2022-08-03T04:52:12.131Z,2.90
2022-08-03T04:54:44.383Z,2.60
2022-08-03T04:57:22.085Z,2.40
2022-08-03T05:00:02.485Z,2.90
2022-08-03T05:02:32.207Z,2.60
2022-08-03T05:04:59.829Z,2.70
2022-08-03T05:07:35.559Z,3.00
2022-08-03T05:10:15.009Z,3.10
2022-08-03T05:12:45.315Z,2.90
2022-08-03T05:15:13.327Z,3.00
2022-08-03T05:17:40.708Z,3.20
2022-08-03T05:20:09.042Z,2.90
2022-08-03T05:22:36.300Z,3.20
2022-08-03T05:25:04.423Z,2.90
2022-08-03T05:27:31.516Z,3.20
2022-08-03T05:30:27.346Z,2.90
2022-08-03T05:32:46.400Z,3.40
2022-08-03T05:36:02.098Z,3.40
2022-08-03T05:38:02.712Z,3.20
2022-08-03T05:40:31.196Z,3.10
2022-08-03T05:42:58.855Z,3.20
2022-08-03T05:45:28.429Z,3.00
2022-08-03T05:47:56.273Z,3.00
2022-08-03T05:50:23.662Z,3.40
2022-08-03T05:52:50.880Z,3.70
2022-08-03T05:55:19.316Z,3.40
2022-08-03T05:57:49.298Z,2.70
2022-08-03T06:00:17.354Z,2.90
2022-08-03T06:02:44.859Z,2.80
2022-08-03T06:05:12.217Z,3.30
2022-08-03T06:07:39.467Z,3.10
2022-08-03T06:10:35.524Z,3.40
2022-08-03T06:12:54.672Z,3.20
2022-08-03T06:15:22.260Z,3.50
2022-08-03T06:17:51.519Z,3.30
2022-08-03T06:20:21.005Z,3.80
2022-08-03T06:22:51.393Z,3.60
2022-08-03T06:25:27.817Z,3.70
2022-08-03T06:27:55.073Z,3.10
2022-08-03T06:30:22.422Z,3.50
2022-08-03T06:32:51.849Z,3.50
2022-08-03T06:35:20.436Z,3.50
2022-08-03T06:37:49.709Z,3.50
2022-08-03T06:40:30.066Z,3.50
2022-08-03T06:43:02.874Z,3.20
2022-08-03T06:45:31.591Z,3.80
2022-08-03T06:48:05.080Z,3.30
2022-08-03T06:50:33.354Z,3.60
2022-08-03T06:53:02.474Z,3.40
2022-08-03T06:55:30.067Z,3.60
2022-08-03T06:57:59.813Z,3.60
2022-08-03T07:00:31.232Z,3.50
2022-08-03T07:02:58.711Z,3.50
2022-08-03T07:05:26.549Z,3.80
2022-08-03T07:08:02.074Z,3.80
2022-08-03T07:10:29.554Z,4.00
2022-08-03T07:12:57.036Z,3.70
2022-08-03T07:15:54.989Z,3.70
2022-08-03T07:18:12.405Z,3.70
2022-08-03T07:20:39.653Z,4.00
2022-08-03T07:23:06.804Z,3.60
2022-08-03T07:25:34.159Z,4.00
2022-08-03T07:28:01.409Z,3.60
2022-08-03T07:30:29.017Z,3.80
2022-08-03T07:32:56.222Z,4.00
2022-08-03T07:35:25.082Z,4.00
2022-08-03T07:37:55.040Z,3.10
2022-08-03T07:40:22.819Z,3.70
2022-08-03T07:42:53.326Z,3.60
2022-08-03T07:45:23.587Z,4.00
2022-08-03T07:47:53.228Z,3.60
2022-08-03T07:50:21.331Z,3.90
2022-08-03T07:52:50.211Z,4.00
2022-08-03T07:55:24.046Z,4.30
2022-08-03T07:58:00.487Z,4.10
2022-08-03T08:00:27.755Z,3.30
2022-08-03T08:02:54.991Z,3.50
2022-08-03T08:05:22.248Z,3.40
2022-08-03T08:07:51.075Z,3.30
2022-08-03T08:10:19.566Z,3.60
2022-08-03T08:12:47.274Z,3.90
2022-08-03T08:15:14.935Z,4.00
2022-08-03T08:17:47.309Z,4.20
2022-08-03T08:20:28.437Z,4.10
2022-08-03T08:23:09.623Z,3.30
2022-08-03T08:25:53.096Z,3.70
2022-08-03T08:28:32.608Z,4.10
2022-08-03T08:31:01.861Z,3.80
2022-08-03T08:33:42.486Z,4.00
2022-08-03T08:36:15.778Z,3.70
2022-08-03T08:38:45.131Z,4.00
2022-08-03T08:41:14.414Z,4.00
2022-08-03T08:43:42.414Z,4.10
2022-08-03T08:46:23.589Z,4.10
2022-08-03T08:48:52.832Z,3.50
2022-08-03T08:51:22.756Z,3.90
2022-08-03T08:53:53.134Z,3.60
2022-08-03T08:56:23.405Z,3.60
2022-08-03T08:59:00.779Z,3.70
2022-08-03T09:01:28.591Z,4.10
2022-08-03T09:03:56.022Z,3.70
2022-08-03T09:06:24.538Z,3.90
2022-08-03T09:08:51.782Z,3.70
2022-08-03T09:12:00.356Z,2.90
2022-08-03T09:14:33.603Z,3.20
2022-08-03T09:17:02.127Z,3.60
2022-08-03T09:19:31.167Z,3.70
2022-08-03T09:22:15.225Z,3.60
2022-08-03T09:25:23.503Z,3.60
2022-08-03T09:27:48.496Z,3.30
2022-08-03T09:30:34.508Z,3.70
2022-08-03T09:33:08.393Z,3.60
2022-08-03T09:35:57.636Z,3.40
2022-08-03T09:38:29.012Z,4.10
2022-08-03T09:41:00.493Z,2.80
2022-08-03T09:43:28.611Z,3.10
2022-08-03T09:46:07.769Z,3.30
2022-08-03T09:48:37.067Z,3.80
2022-08-03T09:51:13.100Z,4.20
2022-08-03T09:53:59.713Z,3.20
2022-08-03T09:56:45.507Z,3.10
2022-08-03T09:59:14.620Z,3.70
2022-08-03T10:01:42.594Z,3.80
2022-08-03T10:06:15.683Z,2.70
2022-08-03T10:08:43.265Z,3.30
2022-08-03T10:11:10.496Z,3.70
2022-08-03T10:13:38.773Z,3.40
2022-08-03T10:16:23.180Z,4.00
2022-08-03T10:18:52.380Z,2.80
2022-08-03T10:21:20.599Z,3.70
2022-08-03T10:23:48.886Z,3.20
2022-08-03T10:26:22.801Z,3.40
2022-08-03T10:28:53.549Z,4.00
2022-08-03T10:31:24.038Z,3.70
2022-08-03T10:33:53.332Z,2.90
2022-08-03T10:36:24.494Z,3.20
2022-08-03T10:38:53.858Z,3.20
2022-08-03T10:41:23.644Z,3.30
2022-08-03T10:43:56.920Z,3.00
2022-08-03T10:46:26.521Z,3.20
2022-08-03T10:48:54.284Z,2.60
2022-08-03T10:51:23.066Z,3.70
2022-08-03T10:53:54.676Z,4.20
2022-08-03T10:56:54.591Z,4.10
2022-08-03T10:59:46.972Z,4.60
2022-08-03T11:02:18.163Z,4.50
2022-08-03T11:04:45.568Z,3.60
2022-08-03T11:07:23.471Z,4.10
2022-08-03T11:09:52.967Z,4.10
2022-08-03T11:12:32.297Z,4.00
2022-08-03T11:15:02.836Z,4.40
2022-08-03T11:17:30.275Z,4.10
2022-08-03T11:19:58.653Z,4.50
2022-08-03T11:22:47.346Z,4.60
2022-08-03T11:25:54.345Z,4.50
2022-08-03T11:28:27.197Z,4.40
2022-08-03T11:30:54.552Z,4.50
2022-08-03T11:33:32.041Z,3.90
2022-08-03T11:36:02.091Z,4.40
2022-08-03T11:38:29.412Z,3.80
2022-08-03T11:40:56.665Z,3.80
2022-08-03T11:43:37.701Z,4.40
2022-08-03T11:46:13.793Z,3.90
2022-08-03T11:49:09.300Z,4.20
2022-08-03T11:51:38.134Z,3.60
2022-08-03T11:54:06.805Z,3.80
2022-08-03T11:56:54.118Z,4.40
2022-08-03T11:59:33.060Z,4.50
2022-08-03T12:02:13.545Z,4.20
2022-08-03T12:05:10.344Z,4.30
2022-08-03T12:08:03.665Z,2.90
2022-08-03T12:10:34.548Z,4.00
2022-08-03T12:13:03.089Z,4.00
2022-08-03T12:15:34.130Z,3.90
2022-08-03T12:18:12.590Z,4.00
2022-08-03T12:20:40.350Z,2.80
2022-08-03T12:23:10.055Z,3.60
2022-08-03T12:25:40.029Z,3.60
2022-08-03T12:28:37.668Z,3.70
2022-08-03T12:31:13.385Z,3.60
2022-08-03T12:34:05.420Z,2.90
2022-08-03T12:36:35.031Z,3.60
2022-08-03T12:39:09.353Z,3.30
2022-08-03T12:41:38.850Z,3.70
2022-08-03T12:44:07.647Z,4.00
2022-08-03T12:46:34.902Z,3.00
2022-08-03T12:49:15.614Z,2.90
2022-08-03T12:51:42.911Z,1.70
2022-08-03T12:54:34.847Z,2.00
2022-08-03T12:57:02.094Z,1.70
2022-08-03T12:59:40.565Z,2.10
2022-08-03T13:02:18.879Z,1.70
2022-08-03T13:04:48.160Z,2.20
2022-08-03T13:07:16.536Z,2.40
2022-08-03T13:09:49.850Z,2.50
2022-08-03T13:12:20.913Z,2.40
2022-08-03T13:14:55.306Z,2.00
2022-08-03T13:17:23.120Z,2.60
2022-08-03T13:19:50.779Z,2.60
2022-08-03T13:22:20.182Z,3.00
2022-08-03T13:24:49.610Z,3.20
2022-08-03T13:28:01.092Z,2.90
2022-08-03T13:30:05.287Z,2.60
2022-08-03T13:32:34.070Z,3.00
2022-08-03T13:35:03.004Z,3.10
2022-08-03T13:37:32.605Z,3.30
2022-08-03T13:40:03.059Z,3.40
2022-08-03T13:42:34.406Z,3.20
2022-08-03T13:45:02.740Z,3.00
2022-08-03T13:47:30.084Z,3.10
2022-08-03T13:49:59.780Z,3.20
2022-08-03T13:52:34.653Z,3.70
2022-08-03T13:55:05.459Z,3.70
2022-08-03T13:58:11.821Z,3.60
2022-08-03T14:00:27.164Z,3.10
2022-08-03T14:03:06.766Z,3.10
2022-08-03T14:05:38.599Z,2.90
2022-08-03T14:08:07.220Z,2.50
2022-08-03T14:10:37.176Z,2.70
2022-08-03T14:13:05.722Z,1.90
2022-08-03T14:15:37.424Z,1.70
2022-08-03T14:18:12.685Z,1.80
2022-08-03T14:20:50.059Z,2.00
2022-08-03T14:23:21.885Z,1.80
2022-08-03T14:25:51.617Z,1.70
2022-08-03T14:28:21.454Z,2.00
2022-08-03T14:30:48.878Z,1.90
2022-08-03T14:33:16.231Z,2.20
2022-08-03T14:35:43.817Z,1.50
2022-08-03T14:38:11.278Z,2.10
2022-08-03T14:40:38.469Z,2.00
2022-08-03T14:43:05.644Z,2.30
2022-08-03T14:45:33.030Z,2.40
2022-08-03T14:50:30.252Z,1.80
2022-08-03T14:50:51.391Z,1.90
2022-08-03T14:55:51.520Z,1.90
2022-08-03T14:58:25.406Z,1.80
2022-08-03T15:00:54.274Z,1.60
2022-08-03T15:03:25.800Z,1.90
2022-08-03T15:08:22.332Z,1.80
2022-08-03T15:10:50.768Z,2.10
2022-08-03T15:13:18.593Z,2.30
2022-08-03T15:15:46.167Z,1.40
2022-08-03T15:18:13.490Z,2.10
2022-08-03T15:20:46.198Z,2.00
2022-08-03T15:23:16.168Z,2.80
2022-08-03T15:26:32.315Z,2.80
2022-08-03T15:28:32.618Z,2.50
2022-08-03T15:31:00.684Z,1.60
2022-08-03T15:33:29.467Z,2.20
2022-08-03T15:35:57.639Z,2.50
2022-08-03T15:38:26.185Z,2.90
2022-08-03T15:40:55.183Z,2.70
2022-08-03T15:43:23.912Z,2.80
2022-08-03T15:46:26.471Z,1.90
2022-08-03T15:48:40.522Z,2.30
2022-08-03T15:51:09.049Z,2.30
2022-08-03T15:53:36.769Z,2.70
2022-08-03T15:56:11.221Z,3.00
2022-08-03T15:59:09.726Z,2.90
2022-08-03T16:01:28.112Z,1.70
2022-08-03T16:03:55.368Z,2.70
2022-08-03T16:06:35.289Z,2.80
2022-08-03T16:09:24.306Z,3.10
2022-08-03T16:11:56.038Z,3.10
2022-08-03T16:14:32.385Z,3.20
2022-08-03T16:17:03.855Z,1.80
2022-08-03T16:19:31.224Z,2.90
2022-08-03T16:21:58.477Z,2.90
2022-08-03T16:24:27.723Z,3.30
2022-08-03T16:26:56.146Z,3.40
2022-08-03T16:29:23.917Z,3.20
2022-08-03T16:31:52.694Z,2.00
2022-08-03T16:34:20.704Z,2.90
2022-08-03T16:36:48.017Z,3.90
2022-08-03T16:39:15.605Z,3.50
2022-08-03T16:41:54.102Z,3.50
2022-08-03T16:44:31.419Z,3.90
2022-08-03T16:46:59.789Z,2.70
2022-08-03T16:49:55.126Z,3.70
2022-08-03T16:52:16.691Z,3.00
2022-08-03T16:54:52.735Z,3.60
2022-08-03T16:57:31.824Z,4.10
2022-08-03T17:00:12.052Z,3.60
2022-08-03T17:02:48.078Z,2.30
2022-08-03T17:05:15.750Z,2.30
2022-08-03T17:07:47.006Z,2.70
2022-08-03T17:10:21.932Z,3.10
2022-08-03T17:12:54.853Z,3.20
2022-08-03T17:15:38.322Z,3.10
2022-08-03T17:18:18.398Z,2.00
2022-08-03T17:20:51.048Z,2.30
2022-08-03T17:23:34.749Z,2.50
2022-08-03T17:26:10.573Z,2.80
2022-08-03T17:28:52.022Z,3.50
2022-08-03T17:31:31.234Z,3.20
2022-08-03T17:34:01.753Z,1.80
2022-08-03T17:36:53.982Z,2.20
2022-08-03T17:39:27.045Z,2.40
2022-08-03T17:42:29.015Z,2.80
2022-08-03T17:44:54.619Z,2.80
2022-08-03T17:47:24.023Z,1.50
2022-08-03T17:49:57.111Z,2.20
2022-08-03T17:52:30.609Z,2.40
2022-08-03T17:55:56.878Z,2.80
2022-08-03T17:58:15.082Z,3.10
2022-08-03T18:01:04.971Z,2.80
2022-08-03T18:03:59.325Z,2.20
2022-08-03T18:06:31.840Z,2.30
2022-08-03T18:10:06.386Z,3.00
2022-08-03T18:11:54.184Z,3.10
2022-08-03T18:14:35.923Z,2.70
2022-08-03T18:17:10.545Z,2.70
2022-08-03T18:20:01.991Z,2.40
2022-08-03T18:22:30.595Z,2.40
2022-08-03T18:25:00.620Z,2.70
2022-08-03T18:27:42.488Z,2.50
2022-08-03T18:30:14.620Z,2.20
2022-08-03T18:33:00.713Z,2.70
2022-08-03T18:35:53.690Z,2.30
2022-08-03T18:38:18.928Z,2.40
2022-08-03T18:40:48.438Z,2.70
2022-08-03T18:43:17.758Z,2.50
2022-08-03T18:45:55.754Z,2.00
2022-08-03T18:48:28.881Z,2.20
2022-08-03T18:50:59.177Z,2.50
2022-08-03T18:54:01.917Z,2.80
2022-08-03T18:56:45.376Z,2.80
2022-08-03T18:59:38.259Z,2.00
2022-08-03T19:02:23.208Z,2.40
2022-08-03T19:04:54.545Z,2.30
2022-08-03T19:07:27.288Z,2.60
2022-08-03T19:09:59.295Z,2.60
2022-08-03T19:12:48.389Z,1.90
2022-08-03T19:15:16.012Z,2.30
2022-08-03T19:17:52.958Z,2.30
2022-08-03T19:20:26.440Z,2.60
2022-08-03T19:22:57.019Z,2.70
2022-08-03T19:25:34.954Z,2.00
2022-08-03T19:28:06.181Z,2.40
2022-08-03T19:30:40.130Z,2.50
2022-08-03T19:33:17.056Z,2.60
2022-08-03T19:35:55.436Z,2.50
2022-08-03T19:38:28.203Z,1.60
2022-08-03T19:41:03.864Z,2.30
2022-08-03T19:43:49.346Z,2.10
2022-08-03T19:46:30.168Z,2.30
2022-08-03T19:49:19.621Z,2.60
2022-08-03T19:52:02.453Z,1.80
2022-08-03T19:54:53.305Z,2.00
2022-08-03T19:57:25.062Z,2.60
2022-08-03T19:59:54.099Z,2.20
2022-08-03T20:02:27.087Z,2.50
2022-08-03T20:04:59.787Z,1.60
2022-08-03T20:07:30.474Z,1.80
2022-08-03T20:10:01.283Z,2.00
2022-08-03T20:12:33.097Z,2.20
2022-08-03T20:15:04.706Z,2.40
2022-08-03T20:17:56.178Z,1.80
2022-08-03T20:20:23.537Z,2.20
2022-08-03T20:22:57.719Z,2.30
2022-08-03T20:25:38.335Z,2.60
2022-08-03T20:28:15.294Z,2.60
2022-08-03T20:30:47.413Z,2.00
2022-08-03T20:33:19.011Z,2.20
2022-08-03T20:35:49.657Z,2.40
2022-08-03T20:38:20.274Z,2.60
2022-08-03T20:40:54.782Z,2.70
2022-08-03T20:43:22.546Z,2.10
2022-08-03T20:46:00.734Z,2.60
2022-08-03T20:48:37.572Z,2.50
2022-08-03T20:51:15.713Z,2.70
2022-08-03T20:53:57.032Z,2.60
2022-08-03T20:56:33.732Z,1.90
2022-08-03T20:59:06.111Z,2.60
2022-08-03T21:01:36.406Z,2.40
2022-08-03T21:04:06.737Z,2.90
2022-08-03T21:06:45.659Z,2.80
2022-08-03T21:09:24.872Z,1.90
2022-08-03T21:12:03.525Z,2.60
2022-08-03T21:14:51.971Z,2.40
2022-08-03T21:17:39.170Z,2.80
2022-08-03T21:20:10.529Z,2.70
2022-08-03T21:22:39.931Z,2.00
2022-08-03T21:25:09.513Z,2.60
2022-08-03T21:27:37.502Z,2.40
2022-08-03T21:30:08.437Z,2.80
2022-08-03T21:32:36.516Z,2.70
2022-08-03T21:35:04.468Z,1.90
2022-08-03T21:37:31.716Z,2.60
2022-08-03T21:39:59.272Z,2.70
2022-08-03T21:42:26.835Z,2.90
2022-08-03T21:44:54.539Z,2.80
2022-08-03T21:47:23.947Z,2.20
2022-08-03T21:50:08.719Z,2.50
2022-08-03T21:52:42.819Z,2.30
2022-08-03T21:55:18.178Z,2.90
2022-08-03T21:57:53.086Z,3.00
2022-08-03T22:00:23.274Z,2.10
2022-08-03T22:02:57.458Z,2.80
2022-08-03T22:05:42.608Z,2.80
2022-08-03T22:08:13.915Z,2.70
2022-08-03T22:10:43.970Z,3.00
2022-08-03T22:13:13.170Z,2.20
2022-08-03T22:15:41.394Z,2.70
2022-08-03T22:18:08.727Z,2.60
2022-08-03T22:20:36.544Z,3.30
2022-08-03T22:23:06.288Z,3.40
2022-08-03T22:25:39.764Z,3.10
2022-08-03T22:28:11.692Z,2.20
2022-08-03T22:30:40.480Z,2.60
2022-08-03T22:33:11.479Z,3.00
2022-08-03T22:35:47.832Z,3.30
2022-08-03T22:38:17.900Z,3.20
2022-08-03T22:40:48.671Z,2.60
2022-08-03T22:43:16.534Z,2.90
2022-08-03T22:46:10.171Z,3.10
2022-08-03T22:48:40.982Z,3.90
2022-08-03T22:51:09.586Z,3.40
2022-08-03T22:53:37.167Z,2.40
2022-08-03T22:56:05.012Z,3.00
2022-08-03T22:58:32.177Z,3.30
2022-08-03T23:01:06.172Z,3.30
2022-08-03T23:03:59.853Z,3.10
2022-08-03T23:06:26.676Z,3.30
2022-08-03T23:08:54.619Z,2.40
2022-08-03T23:11:24.261Z,2.90
2022-08-03T23:13:57.154Z,3.10
2022-08-03T23:16:29.046Z,3.70
2022-08-03T23:18:59.796Z,3.90
2022-08-03T23:22:00.385Z,2.60
2022-08-03T23:24:33.055Z,3.30
2022-08-03T23:27:03.201Z,3.40
2022-08-03T23:29:34.010Z,3.30
2022-08-03T23:32:02.246Z,3.50
2022-08-03T23:34:51.760Z,2.70
2022-08-03T23:37:20.836Z,3.50
2022-08-03T23:39:49.129Z,3.30
2022-08-03T23:42:21.220Z,4.40
2022-08-03T23:44:54.285Z,4.30
2022-08-03T23:47:21.602Z,2.50
2022-08-03T23:49:50.068Z,3.20
2022-08-03T23:52:45.741Z,3.50
2022-08-03T23:55:43.504Z,3.50
2022-08-03T23:58:49.863Z,4.10
